sensor_id;sensor_type;location;lat;lon;timestamp;pressure;altitude;pressure_sealevel;temperature;humidity
53699;BME280;68408;53.952;27.612;2024-01-15T00:02:56;985.6;;;3.2;69.1
53699;BME280;68408;53.952;27.612;2024-01-15T00:07:58;985.5;;;3.2;68.8
53699;BME280;68408;53.952;27.612;2024-01-15T00:22:34;985.5;;;3.1;69.2
53699;BME280;68408;53.952;27.612;2024-01-15T00:27:34;985.5;;;3.1;69.1
53699;BME280;68408;53.952;27.612;2024-01-15T00:32:26;985.5;;;3.1;68.7
53699;BME280;68408;53.952;27.612;2024-01-15T00:37:46;985.5;;;3;68.8
53699;BME280;68408;53.952;27.612;2024-01-15T00:42:56;985.6;;;3;69.1
53699;BME280;68408;53.952;27.612;2024-01-15T00:47:46;985.5;;;2.8;73.5
53699;BME280;68408;53.952;27.612;2024-01-15T00:53:10;985.5;;;2.7;73.3
53699;BME280;68408;53.952;27.612;2024-01-15T00:57:34;985.5;;;2.7;72.2
53699;BME280;68408;53.952;27.612;2024-01-15T01:02:28;985.5;;;2.7;71.9
53699;BME280;68408;53.952;27.612;2024-01-15T01:07:34;985.5;;;2.7;71.6
53699;BME280;68408;53.952;27.612;2024-01-15T01:12:56;985.5;;;2.7;71
53699;BME280;68408;53.952;27.612;2024-01-15T01:18:10;985.5;;;2.7;71
53699;BME280;68408;53.952;27.612;2024-01-15T01:22:56;985.5;;;2.8;70.7
53699;BME280;68408;53.952;27.612;2024-01-15T01:27:46;985.4;;;2.8;70.7
53699;BME280;68408;53.952;27.612;2024-01-15T01:33:08;985.4;;;2.8;70.8
53699;BME280;68408;53.952;27.612;2024-01-15T01:38:10;985.4;;;2.9;70.8
53699;BME280;68408;53.952;27.612;2024-01-15T01:42:58;985.4;;;2.9;71
53699;BME280;68408;53.952;27.612;2024-01-15T01:47:34;985.4;;;2.9;70.9
53699;BME280;68408;53.952;27.612;2024-01-15T01:52:26;985.4;;;2.8;70.8
53699;BME280;68408;53.952;27.612;2024-01-15T01:57:42;985.3;;;2.7;70.4
53699;BME280;68408;53.952;27.612;2024-01-15T02:02:46;985.3;;;2.7;70.1
53699;BME280;68408;53.952;27.612;2024-01-15T02:07:34;985.3;;;2.7;70
53699;BME280;68408;53.952;27.612;2024-01-15T02:12:36;985.3;;;2.7;69.5
53699;BME280;68408;53.952;27.612;2024-01-15T02:17:57;985.3;;;2.7;69
53699;BME280;68408;53.952;27.612;2024-01-15T02:22:44;985.3;;;2.7;69.1
53699;BME280;68408;53.952;27.612;2024-01-15T02:28:11;985.3;;;2.7;69.7
53699;BME280;68408;53.952;27.612;2024-01-15T02:32:46;985.2;;;2.7;70
53699;BME280;68408;53.952;27.612;2024-01-15T02:37:56;985.2;;;2.7;69.9
53699;BME280;68408;53.952;27.612;2024-01-15T02:42:26;985.1;;;2.6;69.6
53699;BME280;68408;53.952;27.612;2024-01-15T02:47:56;985;;;2.7;69.2
53699;BME280;68408;53.952;27.612;2024-01-15T02:52:56;985;;;2.6;68.6
53699;BME280;68408;53.952;27.612;2024-01-15T02:57:26;985.1;;;2.7;68.7
53699;BME280;68408;53.952;27.612;2024-01-15T03:02:47;985;;;2.7;68.2
53699;BME280;68408;53.952;27.612;2024-01-15T03:08:08;985;;;2.7;68.1
53699;BME280;68408;53.952;27.612;2024-01-15T03:13:10;985;;;2.7;68
53699;BME280;68408;53.952;27.612;2024-01-15T03:17:46;985;;;2.6;68.1
53699;BME280;68408;53.952;27.612;2024-01-15T03:22:56;984.9;;;2.6;68.5
53699;BME280;68408;53.952;27.612;2024-01-15T03:27:57;984.9;;;2.6;68.4
53699;BME280;68408;53.952;27.612;2024-01-15T03:32:34;984.9;;;2.6;68.4
53699;BME280;68408;53.952;27.612;2024-01-15T03:37:38;984.8;;;2.6;68.2
53699;BME280;68408;53.952;27.612;2024-01-15T03:42:34;984.9;;;2.6;67.8
53699;BME280;68408;53.952;27.612;2024-01-15T03:47:26;984.8;;;2.6;67.9
53699;BME280;68408;53.952;27.612;2024-01-15T03:53:08;984.8;;;2.6;67.9
53699;BME280;68408;53.952;27.612;2024-01-15T03:57:29;984.8;;;2.6;67.7
53699;BME280;68408;53.952;27.612;2024-01-15T04:03:08;984.7;;;2.6;67.6
53699;BME280;68408;53.952;27.612;2024-01-15T04:08:10;984.7;;;2.6;67.7
53699;BME280;68408;53.952;27.612;2024-01-15T04:12:34;984.7;;;2.5;67.8
53699;BME280;68408;53.952;27.612;2024-01-15T04:18:11;984.7;;;2.5;67.9
53699;BME280;68408;53.952;27.612;2024-01-15T04:23:11;984.7;;;2.4;68.1
53699;BME280;68408;53.952;27.612;2024-01-15T04:27:48;984.7;;;2.4;67.8
53699;BME280;68408;53.952;27.612;2024-01-15T04:32:27;984.6;;;2.4;67.7
53699;BME280;68408;53.952;27.612;2024-01-15T04:38:10;984.6;;;2.3;67.8
53699;BME280;68408;53.952;27.612;2024-01-15T04:42:58;984.5;;;2.3;67.8
53699;BME280;68408;53.952;27.612;2024-01-15T04:48:10;984.5;;;2.2;68.3
53699;BME280;68408;53.952;27.612;2024-01-15T04:52:46;984.4;;;2.3;68.3
53699;BME280;68408;53.952;27.612;2024-01-15T04:58:11;984.4;;;2.3;68.1
53699;BME280;68408;53.952;27.612;2024-01-15T05:02:26;984.4;;;2.3;68.3
53699;BME280;68408;53.952;27.612;2024-01-15T05:07:35;984.4;;;2.4;68.4
53699;BME280;68408;53.952;27.612;2024-01-15T05:12:35;984.4;;;2.4;68.2
53699;BME280;68408;53.952;27.612;2024-01-15T05:17:35;984.4;;;2.4;68.3
53699;BME280;68408;53.952;27.612;2024-01-15T05:22:27;984.3;;;2.4;68.4
53699;BME280;68408;53.952;27.612;2024-01-15T05:27:39;984.3;;;2.5;68.4
53699;BME280;68408;53.952;27.612;2024-01-15T05:32:59;984.3;;;2.4;68.9
53699;BME280;68408;53.952;27.612;2024-01-15T05:37:37;984.3;;;2.5;68.9
53699;BME280;68408;53.952;27.612;2024-01-15T05:43:11;984.3;;;2.5;69.1
53699;BME280;68408;53.952;27.612;2024-01-15T05:47:45;984.3;;;2.5;69.3
53699;BME280;68408;53.952;27.612;2024-01-15T05:53:01;984.3;;;2.5;69.2
53699;BME280;68408;53.952;27.612;2024-01-15T05:57:35;984.3;;;2.4;69.4
53699;BME280;68408;53.952;27.612;2024-01-15T06:02:57;984.3;;;2.3;71.5
53699;BME280;68408;53.952;27.612;2024-01-15T06:07:27;984.2;;;2.2;70.8
53699;BME280;68408;53.952;27.612;2024-01-15T06:12:57;984.3;;;2.3;70.2
53699;BME280;68408;53.952;27.612;2024-01-15T06:18:09;984.2;;;2.3;70.9
53699;BME280;68408;53.952;27.612;2024-01-15T06:22:57;984.2;;;2.3;70.3
53699;BME280;68408;53.952;27.612;2024-01-15T06:27:28;984.2;;;2.4;70.4
53699;BME280;68408;53.952;27.612;2024-01-15T06:33:11;984.2;;;2.4;70.2
53699;BME280;68408;53.952;27.612;2024-01-15T06:38:11;984.2;;;2.5;69.5
53699;BME280;68408;53.952;27.612;2024-01-15T06:43:01;984.2;;;2.6;69.4
53699;BME280;68408;53.952;27.612;2024-01-15T06:47:39;984.1;;;2.7;69.1
53699;BME280;68408;53.952;27.612;2024-01-15T06:52:45;984.1;;;2.7;68.7
53699;BME280;68408;53.952;27.612;2024-01-15T06:57:35;984;;;2.7;68.8
53699;BME280;68408;53.952;27.612;2024-01-15T07:02:37;984;;;2.8;68.8
53699;BME280;68408;53.952;27.612;2024-01-15T07:07:35;984;;;2.8;68.3
53699;BME280;68408;53.952;27.612;2024-01-15T07:13:12;984;;;2.9;68.3
53699;BME280;68408;53.952;27.612;2024-01-15T07:17:57;984;;;2.9;68.3
53699;BME280;68408;53.952;27.612;2024-01-15T07:22:45;984;;;2.9;67.8
53699;BME280;68408;53.952;27.612;2024-01-15T07:28:09;984.1;;;2.9;67.7
53699;BME280;68408;53.952;27.612;2024-01-15T07:33:01;984.1;;;2.9;67.9
53699;BME280;68408;53.952;27.612;2024-01-15T07:37:57;984;;;2.9;67.7
53699;BME280;68408;53.952;27.612;2024-01-15T07:42:41;984;;;2.9;67.7
53699;BME280;68408;53.952;27.612;2024-01-15T07:47:29;984;;;3;67.7
53699;BME280;68408;53.952;27.612;2024-01-15T07:52:57;984;;;3;67.7
53699;BME280;68408;53.952;27.612;2024-01-15T07:57:27;983.9;;;2.9;68.6
53699;BME280;68408;53.952;27.612;2024-01-15T08:02:49;983.8;;;3;68.8
53699;BME280;68408;53.952;27.612;2024-01-15T08:07:59;983.9;;;3.1;68
53699;BME280;68408;53.952;27.612;2024-01-15T08:13:12;983.8;;;3.2;67.6
53699;BME280;68408;53.952;27.612;2024-01-15T08:17:39;983.8;;;3.3;67.3
53699;BME280;68408;53.952;27.612;2024-01-15T08:22:58;983.7;;;3.3;67.2
53699;BME280;68408;53.952;27.612;2024-01-15T08:27:27;983.6;;;3.2;66.9
53699;BME280;68408;53.952;27.612;2024-01-15T08:32:27;983.6;;;3.2;67.1
53699;BME280;68408;53.952;27.612;2024-01-15T08:37:27;983.6;;;3.1;67.6
53699;BME280;68408;53.952;27.612;2024-01-15T08:42:27;983.5;;;3.2;67.7
53699;BME280;68408;53.952;27.612;2024-01-15T08:47:35;983.5;;;3.3;67.1
53699;BME280;68408;53.952;27.612;2024-01-15T08:53:11;983.5;;;3.5;66.7
53699;BME280;68408;53.952;27.612;2024-01-15T08:58:01;983.4;;;3.4;66.2
53699;BME280;68408;53.952;27.612;2024-01-15T09:03:11;983.4;;;3.5;66.1
53699;BME280;68408;53.952;27.612;2024-01-15T09:08:09;983.3;;;3.5;66.6
53699;BME280;68408;53.952;27.612;2024-01-15T09:12:45;983.3;;;3.5;66.6
53699;BME280;68408;53.952;27.612;2024-01-15T09:18:11;983.1;;;3.5;66.4
53699;BME280;68408;53.952;27.612;2024-01-15T09:23:09;983.1;;;3.6;66.3
53699;BME280;68408;53.952;27.612;2024-01-15T09:27:57;983;;;3.7;66
53699;BME280;68408;53.952;27.612;2024-01-15T09:32:43;983;;;3.7;66.4
53699;BME280;68408;53.952;27.612;2024-01-15T09:37:55;983;;;3.7;66.4
53699;BME280;68408;53.952;27.612;2024-01-15T09:43:01;983;;;3.7;66.2
53699;BME280;68408;53.952;27.612;2024-01-15T09:48:11;983;;;3.5;66.1
53699;BME280;68408;53.952;27.612;2024-01-15T09:52:47;982.9;;;3.4;66.1
53699;BME280;68408;53.952;27.612;2024-01-15T09:58:09;982.8;;;3.3;66.4
53699;BME280;68408;53.952;27.612;2024-01-15T10:02:27;982.8;;;3.3;66.3
53699;BME280;68408;53.952;27.612;2024-01-15T10:07:27;982.9;;;3.3;66.4
53699;BME280;68408;53.952;27.612;2024-01-15T10:12:27;982.8;;;3.3;66.1
53699;BME280;68408;53.952;27.612;2024-01-15T10:17:36;982.8;;;3.5;65.8
53699;BME280;68408;53.952;27.612;2024-01-15T10:22:27;982.8;;;3.6;65.3
53699;BME280;68408;53.952;27.612;2024-01-15T10:27:35;982.7;;;3.6;64.8
53699;BME280;68408;53.952;27.612;2024-01-15T10:32:59;982.7;;;3.7;64.8
53699;BME280;68408;53.952;27.612;2024-01-15T10:37:27;982.7;;;3.6;64.9
53699;BME280;68408;53.952;27.612;2024-01-15T10:43:11;982.7;;;3.5;65
53699;BME280;68408;53.952;27.612;2024-01-15T10:47:47;982.7;;;3.4;66.7
53699;BME280;68408;53.952;27.612;2024-01-15T10:53:11;982.6;;;3.4;66.9
53699;BME280;68408;53.952;27.612;2024-01-15T10:57:27;982.6;;;3.4;67.4
53699;BME280;68408;53.952;27.612;2024-01-15T11:02:57;982.5;;;3.5;67.1
53699;BME280;68408;53.952;27.612;2024-01-15T11:07:43;982.4;;;3.7;66.4
53699;BME280;68408;53.952;27.612;2024-01-15T11:12:57;982.3;;;3.7;66.3
53699;BME280;68408;53.952;27.612;2024-01-15T11:18:11;982.2;;;3.9;65.6
53699;BME280;68408;53.952;27.612;2024-01-15T11:22:57;982.2;;;3.9;65.3
53699;BME280;68408;53.952;27.612;2024-01-15T11:27:39;982.2;;;4;65.2
53699;BME280;68408;53.952;27.612;2024-01-15T11:33:25;982.2;;;3.9;65.2
53699;BME280;68408;53.952;27.612;2024-01-15T11:38:11;982.1;;;3.8;65.3
53699;BME280;68408;53.952;27.612;2024-01-15T11:42:41;982.1;;;3.7;65.4
53699;BME280;68408;53.952;27.612;2024-01-15T11:47:51;982;;;3.7;65.2
53699;BME280;68408;53.952;27.612;2024-01-15T11:52:31;982.1;;;3.5;65.1
53699;BME280;68408;53.952;27.612;2024-01-15T11:57:39;982;;;3.5;65.1
53699;BME280;68408;53.952;27.612;2024-01-15T12:02:27;981.9;;;3.4;65.1
53699;BME280;68408;53.952;27.612;2024-01-15T12:07:57;981.8;;;3.4;65
53699;BME280;68408;53.952;27.612;2024-01-15T12:12:51;981.8;;;3.4;65.1
53699;BME280;68408;53.952;27.612;2024-01-15T12:17:55;981.7;;;3.3;65.6
53699;BME280;68408;53.952;27.612;2024-01-15T12:22:27;981.6;;;3.3;65.8
53699;BME280;68408;53.952;27.612;2024-01-15T12:28:09;981.6;;;3.4;65.8
53699;BME280;68408;53.952;27.612;2024-01-15T12:33:00;981.5;;;3.4;65.7
53699;BME280;68408;53.952;27.612;2024-01-15T12:37:57;981.6;;;3.4;66.4
53699;BME280;68408;53.952;27.612;2024-01-15T12:43:05;981.5;;;3.3;68
53699;BME280;68408;53.952;27.612;2024-01-15T12:47:57;981.5;;;3.2;68
53699;BME280;68408;53.952;27.612;2024-01-15T12:52:29;981.4;;;3.1;68.4
53699;BME280;68408;53.952;27.612;2024-01-15T12:57:43;981.5;;;2.9;69.8
53699;BME280;68408;53.952;27.612;2024-01-15T13:02:49;981.5;;;2.8;71.4
53699;BME280;68408;53.952;27.612;2024-01-15T13:08:01;981.5;;;2.6;76.4
53699;BME280;68408;53.952;27.612;2024-01-15T13:13:11;981.5;;;2.5;77.7
53699;BME280;68408;53.952;27.612;2024-01-15T13:17:47;981.5;;;2.5;75.9
53699;BME280;68408;53.952;27.612;2024-01-15T13:23:11;981.5;;;2.5;73.7
53699;BME280;68408;53.952;27.612;2024-01-15T13:27:27;981.5;;;2.5;72
53699;BME280;68408;53.952;27.612;2024-01-15T13:32:28;981.5;;;2.5;71.1
53699;BME280;68408;53.952;27.612;2024-01-15T13:47:39;981.4;;;1.4;71.8
53699;BME280;68408;53.952;27.612;2024-01-15T13:53:11;981.4;;;1.5;71.9
53699;BME280;68408;53.952;27.612;2024-01-15T13:58:01;981.4;;;1.7;71.4
53699;BME280;68408;53.952;27.612;2024-01-15T14:03:09;981.3;;;1.9;70.6
53699;BME280;68408;53.952;27.612;2024-01-15T14:08:11;981.3;;;2;70.3
53699;BME280;68408;53.952;27.612;2024-01-15T14:12:41;981.4;;;2.2;69.6
53699;BME280;68408;53.952;27.612;2024-01-15T14:18:11;981.5;;;2.3;69.5
53699;BME280;68408;53.952;27.612;2024-01-15T14:23:12;981.4;;;2.2;69.4
53699;BME280;68408;53.952;27.612;2024-01-15T14:27:57;981.4;;;2.2;69.6
53699;BME280;68408;53.952;27.612;2024-01-15T14:32:47;981.4;;;2.2;69.8
53699;BME280;68408;53.952;27.612;2024-01-15T14:37:27;981.5;;;2.2;69.3
53699;BME280;68408;53.952;27.612;2024-01-15T14:42:27;981.5;;;2.2;69.1
53699;BME280;68408;53.952;27.612;2024-01-15T14:47:35;981.5;;;2.2;69
53699;BME280;68408;53.952;27.612;2024-01-15T14:52:27;981.4;;;2.3;68.8
53699;BME280;68408;53.952;27.612;2024-01-15T14:57:27;981.4;;;2.3;68.5
53699;BME280;68408;53.952;27.612;2024-01-15T15:02:27;981.5;;;2.2;68.4
53699;BME280;68408;53.952;27.612;2024-01-15T15:08:09;981.5;;;2.2;68.8
53699;BME280;68408;53.952;27.612;2024-01-15T15:13:01;981.4;;;2.2;68.6
53699;BME280;68408;53.952;27.612;2024-01-15T15:18:11;981.4;;;2.2;68.5
53699;BME280;68408;53.952;27.612;2024-01-15T15:23:09;981.4;;;2.2;68.7
53699;BME280;68408;53.952;27.612;2024-01-15T15:28:01;981.4;;;2.1;72.4
53699;BME280;68408;53.952;27.612;2024-01-15T15:32:57;981.4;;;2;71.6
53699;BME280;68408;53.952;27.612;2024-01-15T15:38:11;981.5;;;1.9;71.3
53699;BME280;68408;53.952;27.612;2024-01-15T15:42:57;981.5;;;1.9;71.4
53699;BME280;68408;53.952;27.612;2024-01-15T15:47:35;981.6;;;1.8;72.2
53699;BME280;68408;53.952;27.612;2024-01-15T15:52:57;981.6;;;1.7;72.5
53699;BME280;68408;53.952;27.612;2024-01-15T15:57:41;981.6;;;1.6;72.4
53699;BME280;68408;53.952;27.612;2024-01-15T16:03:11;981.6;;;1.6;72.2
53699;BME280;68408;53.952;27.612;2024-01-15T16:08:11;981.6;;;1.7;71.8
53699;BME280;68408;53.952;27.612;2024-01-15T16:13:11;981.6;;;1.7;71.6
53699;BME280;68408;53.952;27.612;2024-01-15T16:17:47;981.7;;;1.7;71.3
53699;BME280;68408;53.952;27.612;2024-01-15T16:22:35;981.8;;;1.7;70.7
53699;BME280;68408;53.952;27.612;2024-01-15T16:27:27;981.8;;;1.7;70.5
53699;BME280;68408;53.952;27.612;2024-01-15T16:32:45;981.8;;;1.7;70
53699;BME280;68408;53.952;27.612;2024-01-15T16:37:27;981.8;;;1.8;69.9
53699;BME280;68408;53.952;27.612;2024-01-15T16:42:35;981.9;;;1.8;69.8
53699;BME280;68408;53.952;27.612;2024-01-15T16:48:01;981.9;;;1.9;69.3
53699;BME280;68408;53.952;27.612;2024-01-15T16:52:27;981.9;;;1.9;69.1
53699;BME280;68408;53.952;27.612;2024-01-15T16:58:09;981.9;;;1.9;69.2
53699;BME280;68408;53.952;27.612;2024-01-15T17:02:47;981.8;;;1.9;69.1
53699;BME280;68408;53.952;27.612;2024-01-15T17:08:09;981.8;;;2;68.8
53699;BME280;68408;53.952;27.612;2024-01-15T17:12:51;981.8;;;2;68.4
53699;BME280;68408;53.952;27.612;2024-01-15T17:17:57;981.8;;;2;69.5
53699;BME280;68408;53.952;27.612;2024-01-15T17:22:27;981.8;;;1.9;70
53699;BME280;68408;53.952;27.612;2024-01-15T17:28:09;981.8;;;1.8;69.8
53699;BME280;68408;53.952;27.612;2024-01-15T17:33:09;981.8;;;1.8;69.3
53699;BME280;68408;53.952;27.612;2024-01-15T17:37:57;981.8;;;1.9;68.7
53699;BME280;68408;53.952;27.612;2024-01-15T17:42:47;981.8;;;1.9;68.1
53699;BME280;68408;53.952;27.612;2024-01-15T17:48:11;981.8;;;1.9;67.4
53699;BME280;68408;53.952;27.612;2024-01-15T17:53:11;981.8;;;2;67.3
53699;BME280;68408;53.952;27.612;2024-01-15T17:58:01;981.8;;;2;66.7
53699;BME280;68408;53.952;27.612;2024-01-15T18:02:47;981.9;;;1.9;66.5
53699;BME280;68408;53.952;27.612;2024-01-15T18:07:35;981.9;;;1.9;66.5
53699;BME280;68408;53.952;27.612;2024-01-15T18:12:27;981.9;;;1.9;66.4
53699;BME280;68408;53.952;27.612;2024-01-15T18:17:35;981.9;;;1.9;66.6
53699;BME280;68408;53.952;27.612;2024-01-15T18:22:57;982;;;1.8;68.8
53699;BME280;68408;53.952;27.612;2024-01-15T18:28:01;982;;;1.7;69.8
53699;BME280;68408;53.952;27.612;2024-01-15T18:32:57;982;;;1.7;69.5
53699;BME280;68408;53.952;27.612;2024-01-15T18:37:47;982;;;1.7;69.4
53699;BME280;68408;53.952;27.612;2024-01-15T18:43:09;981.9;;;1.8;68.6
53699;BME280;68408;53.952;27.612;2024-01-15T18:48:01;981.9;;;1.8;67.9
53699;BME280;68408;53.952;27.612;2024-01-15T18:52:57;981.9;;;1.8;67.6
53699;BME280;68408;53.952;27.612;2024-01-15T18:57:57;981.8;;;1.8;67.1
53699;BME280;68408;53.952;27.612;2024-01-15T19:02:57;981.8;;;1.8;67.2
53699;BME280;68408;53.952;27.612;2024-01-15T19:08:11;981.8;;;1.8;67.1
